sensor_id;sensor_type;location;lat;lon;timestamp;P1;durP1;ratioP1;P2;durP2;ratioP2
53207;SDS011;39093;52.788;6.940;2022-10-16T00:01:21;4.80;;;1.55;;
53207;SDS011;39093;52.788;6.940;2022-10-16T00:03:50;6.05;;;1.52;;
53207;SDS011;39093;52.788;6.940;2022-10-16T00:06:17;26.60;;;2.25;;
53207;SDS011;39093;52.788;6.940;2022-10-16T00:08:46;4.03;;;1.65;;
53207;SDS011;39093;52.788;6.940;2022-10-16T00:11:15;6.10;;;1.80;;
53207;SDS011;39093;52.788;6.940;2022-10-16T00:13:44;10.23;;;4.20;;
53207;SDS011;39093;52.788;6.940;2022-10-16T00:16:14;13.05;;;3.67;;
53207;SDS011;39093;52.788;6.940;2022-10-16T00:18:42;11.52;;;3.88;;
53207;SDS011;39093;52.788;6.940;2022-10-16T00:21:10;9.10;;;3.17;;
53207;SDS011;39093;52.788;6.940;2022-10-16T00:23:39;14.48;;;6.32;;
53207;SDS011;39093;52.788;6.940;2022-10-16T00:26:09;10.98;;;3.28;;
53207;SDS011;39093;52.788;6.940;2022-10-16T00:28:37;14.82;;;2.95;;
53207;SDS011;39093;52.788;6.940;2022-10-16T00:31:05;9.43;;;2.85;;
53207;SDS011;39093;52.788;6.940;2022-10-16T00:33:33;7.43;;;3.60;;
53207;SDS011;39093;52.788;6.940;2022-10-16T00:36:01;7.60;;;2.30;;
53207;SDS011;39093;52.788;6.940;2022-10-16T00:38:30;7.03;;;1.45;;
53207;SDS011;39093;52.788;6.940;2022-10-16T00:40:57;6.40;;;2.00;;
53207;SDS011;39093;52.788;6.940;2022-10-16T00:46:05;8.93;;;1.63;;
53207;SDS011;39093;52.788;6.940;2022-10-16T00:48:41;7.00;;;1.65;;
53207;SDS011;39093;52.788;6.940;2022-10-16T00:51:12;9.85;;;4.10;;
53207;SDS011;39093;52.788;6.940;2022-10-16T00:53:39;5.78;;;2.63;;
53207;SDS011;39093;52.788;6.940;2022-10-16T00:56:07;5.22;;;2.65;;
53207;SDS011;39093;52.788;6.940;2022-10-16T00:58:33;6.47;;;2.20;;
53207;SDS011;39093;52.788;6.940;2022-10-16T01:01:00;10.90;;;4.35;;
53207;SDS011;39093;52.788;6.940;2022-10-16T01:03:29;12.15;;;7.18;;
53207;SDS011;39093;52.788;6.940;2022-10-16T01:08:45;6.72;;;2.00;;
53207;SDS011;39093;52.788;6.940;2022-10-16T01:11:28;7.47;;;2.42;;
53207;SDS011;39093;52.788;6.940;2022-10-16T01:14:19;8.07;;;2.20;;
53207;SDS011;39093;52.788;6.940;2022-10-16T01:16:55;6.65;;;2.03;;
53207;SDS011;39093;52.788;6.940;2022-10-16T01:20:14;6.25;;;2.78;;
53207;SDS011;39093;52.788;6.940;2022-10-16T01:22:46;7.10;;;2.08;;
53207;SDS011;39093;52.788;6.940;2022-10-16T01:25:27;8.45;;;2.08;;
53207;SDS011;39093;52.788;6.940;2022-10-16T01:28:05;8.90;;;3.55;;
53207;SDS011;39093;52.788;6.940;2022-10-16T01:30:38;8.30;;;2.50;;
53207;SDS011;39093;52.788;6.940;2022-10-16T01:33:21;3.95;;;2.28;;
53207;SDS011;39093;52.788;6.940;2022-10-16T01:35:52;5.45;;;2.97;;
53207;SDS011;39093;52.788;6.940;2022-10-16T01:38:24;5.95;;;2.13;;
53207;SDS011;39093;52.788;6.940;2022-10-16T01:40:59;5.80;;;1.63;;
53207;SDS011;39093;52.788;6.940;2022-10-16T01:43:36;5.22;;;2.53;;
53207;SDS011;39093;52.788;6.940;2022-10-16T01:46:36;5.50;;;1.80;;
53207;SDS011;39093;52.788;6.940;2022-10-16T01:49:05;6.80;;;1.73;;
53207;SDS011;39093;52.788;6.940;2022-10-16T01:51:34;4.03;;;1.35;;
53207;SDS011;39093;52.788;6.940;2022-10-16T01:54:03;3.60;;;1.52;;
53207;SDS011;39093;52.788;6.940;2022-10-16T01:56:33;4.70;;;2.03;;
53207;SDS011;39093;52.788;6.940;2022-10-16T01:59:03;5.93;;;2.58;;
53207;SDS011;39093;52.788;6.940;2022-10-16T02:01:33;3.53;;;1.40;;
53207;SDS011;39093;52.788;6.940;2022-10-16T02:04:04;11.55;;;2.40;;
53207;SDS011;39093;52.788;6.940;2022-10-16T02:06:37;3.97;;;1.25;;
53207;SDS011;39093;52.788;6.940;2022-10-16T02:09:04;5.70;;;1.70;;
53207;SDS011;39093;52.788;6.940;2022-10-16T02:11:31;10.77;;;2.08;;
53207;SDS011;39093;52.788;6.940;2022-10-16T02:14:02;5.18;;;1.50;;
53207;SDS011;39093;52.788;6.940;2022-10-16T02:16:38;7.03;;;1.77;;
53207;SDS011;39093;52.788;6.940;2022-10-16T02:19:07;5.55;;;2.20;;
53207;SDS011;39093;52.788;6.940;2022-10-16T02:21:43;8.30;;;1.58;;
53207;SDS011;39093;52.788;6.940;2022-10-16T02:24:24;7.20;;;1.33;;
53207;SDS011;39093;52.788;6.940;2022-10-16T02:30:14;8.75;;;2.00;;
53207;SDS011;39093;52.788;6.940;2022-10-16T02:32:54;8.02;;;1.65;;
53207;SDS011;39093;52.788;6.940;2022-10-16T02:35:24;5.57;;;1.98;;
53207;SDS011;39093;52.788;6.940;2022-10-16T02:37:53;6.68;;;1.77;;
53207;SDS011;39093;52.788;6.940;2022-10-16T02:40:21;7.72;;;1.85;;
53207;SDS011;39093;52.788;6.940;2022-10-16T02:42:51;4.15;;;1.50;;
53207;SDS011;39093;52.788;6.940;2022-10-16T02:45:19;4.85;;;1.33;;
53207;SDS011;39093;52.788;6.940;2022-10-16T02:47:49;4.38;;;1.70;;
53207;SDS011;39093;52.788;6.940;2022-10-16T02:50:16;9.25;;;1.83;;
53207;SDS011;39093;52.788;6.940;2022-10-16T02:52:43;7.50;;;1.75;;
53207;SDS011;39093;52.788;6.940;2022-10-16T02:55:10;6.43;;;1.75;;
53207;SDS011;39093;52.788;6.940;2022-10-16T02:57:36;4.45;;;1.77;;
53207;SDS011;39093;52.788;6.940;2022-10-16T03:00:05;9.65;;;1.50;;
53207;SDS011;39093;52.788;6.940;2022-10-16T03:02:33;5.45;;;1.45;;
53207;SDS011;39093;52.788;6.940;2022-10-16T03:05:00;1.80;;;1.27;;
53207;SDS011;39093;52.788;6.940;2022-10-16T03:07:27;4.20;;;1.40;;
53207;SDS011;39093;52.788;6.940;2022-10-16T03:09:54;4.10;;;1.40;;
53207;SDS011;39093;52.788;6.940;2022-10-16T03:12:21;5.10;;;1.48;;
53207;SDS011;39093;52.788;6.940;2022-10-16T03:14:48;5.70;;;1.52;;
53207;SDS011;39093;52.788;6.940;2022-10-16T03:17:15;7.70;;;1.90;;
53207;SDS011;39093;52.788;6.940;2022-10-16T03:19:43;3.70;;;2.05;;
53207;SDS011;39093;52.788;6.940;2022-10-16T03:22:10;5.85;;;1.52;;
53207;SDS011;39093;52.788;6.940;2022-10-16T03:24:37;5.60;;;2.13;;
53207;SDS011;39093;52.788;6.940;2022-10-16T03:27:04;6.90;;;1.98;;
53207;SDS011;39093;52.788;6.940;2022-10-16T03:29:31;2.47;;;1.50;;
53207;SDS011;39093;52.788;6.940;2022-10-16T03:31:59;2.17;;;1.38;;
53207;SDS011;39093;52.788;6.940;2022-10-16T03:34:26;5.70;;;1.48;;
53207;SDS011;39093;52.788;6.940;2022-10-16T03:36:54;4.65;;;1.67;;
53207;SDS011;39093;52.788;6.940;2022-10-16T03:39:21;4.50;;;1.98;;
53207;SDS011;39093;52.788;6.940;2022-10-16T03:41:47;3.45;;;1.75;;
53207;SDS011;39093;52.788;6.940;2022-10-16T03:44:14;7.88;;;1.60;;
53207;SDS011;39093;52.788;6.940;2022-10-16T03:46:41;5.90;;;2.20;;
53207;SDS011;39093;52.788;6.940;2022-10-16T03:49:08;4.28;;;1.88;;
53207;SDS011;39093;52.788;6.940;2022-10-16T03:51:35;4.80;;;1.85;;
53207;SDS011;39093;52.788;6.940;2022-10-16T03:54:02;4.22;;;1.98;;
53207;SDS011;39093;52.788;6.940;2022-10-16T03:56:29;2.95;;;1.60;;
53207;SDS011;39093;52.788;6.940;2022-10-16T03:58:56;6.75;;;1.73;;
53207;SDS011;39093;52.788;6.940;2022-10-16T04:01:22;4.13;;;1.80;;
53207;SDS011;39093;52.788;6.940;2022-10-16T04:03:49;6.00;;;2.10;;
53207;SDS011;39093;52.788;6.940;2022-10-16T04:06:16;7.70;;;2.50;;
53207;SDS011;39093;52.788;6.940;2022-10-16T04:08:43;4.82;;;1.70;;
53207;SDS011;39093;52.788;6.940;2022-10-16T04:11:11;4.13;;;2.22;;
53207;SDS011;39093;52.788;6.940;2022-10-16T04:13:38;4.72;;;2.45;;
53207;SDS011;39093;52.788;6.940;2022-10-16T04:16:05;2.70;;;2.00;;
53207;SDS011;39093;52.788;6.940;2022-10-16T04:18:32;5.32;;;2.05;;
53207;SDS011;39093;52.788;6.940;2022-10-16T04:21:03;3.33;;;1.95;;
53207;SDS011;39093;52.788;6.940;2022-10-16T04:23:30;4.20;;;1.85;;
53207;SDS011;39093;52.788;6.940;2022-10-16T04:25:57;4.07;;;2.05;;
53207;SDS011;39093;52.788;6.940;2022-10-16T04:28:26;8.77;;;1.75;;
53207;SDS011;39093;52.788;6.940;2022-10-16T04:30:53;4.85;;;2.00;;
53207;SDS011;39093;52.788;6.940;2022-10-16T04:33:21;4.35;;;2.33;;
53207;SDS011;39093;52.788;6.940;2022-10-16T04:35:48;7.28;;;2.80;;
53207;SDS011;39093;52.788;6.940;2022-10-16T04:38:14;8.18;;;1.95;;
53207;SDS011;39093;52.788;6.940;2022-10-16T04:40:42;4.32;;;2.55;;
53207;SDS011;39093;52.788;6.940;2022-10-16T04:43:09;3.55;;;2.33;;
53207;SDS011;39093;52.788;6.940;2022-10-16T04:45:36;3.35;;;1.88;;
53207;SDS011;39093;52.788;6.940;2022-10-16T04:48:03;7.38;;;2.42;;
53207;SDS011;39093;52.788;6.940;2022-10-16T04:50:30;8.15;;;2.65;;
53207;SDS011;39093;52.788;6.940;2022-10-16T04:52:57;4.85;;;2.92;;
53207;SDS011;39093;52.788;6.940;2022-10-16T04:55:24;5.88;;;2.55;;
53207;SDS011;39093;52.788;6.940;2022-10-16T04:57:50;5.50;;;2.33;;
53207;SDS011;39093;52.788;6.940;2022-10-16T05:00:17;6.63;;;2.45;;
53207;SDS011;39093;52.788;6.940;2022-10-16T05:02:44;7.28;;;2.70;;
53207;SDS011;39093;52.788;6.940;2022-10-16T05:05:11;3.70;;;2.10;;
53207;SDS011;39093;52.788;6.940;2022-10-16T05:07:38;5.47;;;2.67;;
53207;SDS011;39093;52.788;6.940;2022-10-16T05:10:05;3.65;;;2.20;;
53207;SDS011;39093;52.788;6.940;2022-10-16T05:12:32;6.07;;;2.42;;
53207;SDS011;39093;52.788;6.940;2022-10-16T05:15:00;7.40;;;2.72;;
53207;SDS011;39093;52.788;6.940;2022-10-16T05:17:26;5.85;;;2.47;;
53207;SDS011;39093;52.788;6.940;2022-10-16T05:19:54;6.82;;;3.03;;
53207;SDS011;39093;52.788;6.940;2022-10-16T05:22:21;3.20;;;2.33;;
53207;SDS011;39093;52.788;6.940;2022-10-16T05:24:48;6.47;;;2.53;;
53207;SDS011;39093;52.788;6.940;2022-10-16T05:27:15;5.22;;;2.08;;
53207;SDS011;39093;52.788;6.940;2022-10-16T05:29:45;3.90;;;2.00;;
53207;SDS011;39093;52.788;6.940;2022-10-16T05:32:13;7.38;;;2.40;;
53207;SDS011;39093;52.788;6.940;2022-10-16T05:34:42;5.80;;;2.25;;
53207;SDS011;39093;52.788;6.940;2022-10-16T05:37:09;6.63;;;2.28;;
53207;SDS011;39093;52.788;6.940;2022-10-16T05:39:38;3.80;;;1.98;;
53207;SDS011;39093;52.788;6.940;2022-10-16T05:42:04;6.30;;;2.38;;
53207;SDS011;39093;52.788;6.940;2022-10-16T05:44:31;4.10;;;2.30;;
53207;SDS011;39093;52.788;6.940;2022-10-16T05:46:59;6.72;;;2.50;;
53207;SDS011;39093;52.788;6.940;2022-10-16T05:49:25;5.10;;;2.33;;
53207;SDS011;39093;52.788;6.940;2022-10-16T05:51:52;3.40;;;2.17;;
53207;SDS011;39093;52.788;6.940;2022-10-16T05:54:19;3.97;;;2.10;;
53207;SDS011;39093;52.788;6.940;2022-10-16T05:56:46;6.80;;;2.20;;
53207;SDS011;39093;52.788;6.940;2022-10-16T05:59:13;4.15;;;2.08;;
53207;SDS011;39093;52.788;6.940;2022-10-16T06:01:40;5.30;;;2.13;;
53207;SDS011;39093;52.788;6.940;2022-10-16T06:04:07;4.20;;;2.28;;
53207;SDS011;39093;52.788;6.940;2022-10-16T06:06:34;3.95;;;2.00;;
53207;SDS011;39093;52.788;6.940;2022-10-16T06:09:02;3.15;;;1.83;;
53207;SDS011;39093;52.788;6.940;2022-10-16T06:11:31;6.07;;;1.70;;
53207;SDS011;39093;52.788;6.940;2022-10-16T06:14:00;2.45;;;1.63;;
53207;SDS011;39093;52.788;6.940;2022-10-16T06:16:34;5.43;;;1.90;;
53207;SDS011;39093;52.788;6.940;2022-10-16T06:19:02;3.97;;;1.90;;
53207;SDS011;39093;52.788;6.940;2022-10-16T06:21:32;7.30;;;2.20;;
53207;SDS011;39093;52.788;6.940;2022-10-16T06:23:59;3.33;;;2.00;;
53207;SDS011;39093;52.788;6.940;2022-10-16T06:26:28;4.55;;;2.20;;
53207;SDS011;39093;52.788;6.940;2022-10-16T06:28:56;5.88;;;1.90;;
53207;SDS011;39093;52.788;6.940;2022-10-16T06:31:25;6.18;;;2.08;;
53207;SDS011;39093;52.788;6.940;2022-10-16T06:33:54;3.30;;;1.48;;
53207;SDS011;39093;52.788;6.940;2022-10-16T06:36:22;5.43;;;1.90;;
53207;SDS011;39093;52.788;6.940;2022-10-16T06:38:51;6.30;;;1.50;;
53207;SDS011;39093;52.788;6.940;2022-10-16T06:41:19;2.85;;;1.55;;
53207;SDS011;39093;52.788;6.940;2022-10-16T06:43:47;9.25;;;2.00;;
53207;SDS011;39093;52.788;6.940;2022-10-16T06:46:15;4.65;;;1.70;;
53207;SDS011;39093;52.788;6.940;2022-10-16T06:48:44;3.40;;;1.70;;
53207;SDS011;39093;52.788;6.940;2022-10-16T06:51:12;6.35;;;1.88;;
53207;SDS011;39093;52.788;6.940;2022-10-16T06:53:43;2.75;;;1.70;;
53207;SDS011;39093;52.788;6.940;2022-10-16T06:56:28;5.88;;;2.00;;
53207;SDS011;39093;52.788;6.940;2022-10-16T06:58:57;5.72;;;2.05;;
53207;SDS011;39093;52.788;6.940;2022-10-16T07:01:25;3.95;;;2.22;;
53207;SDS011;39093;52.788;6.940;2022-10-16T07:03:52;4.68;;;2.20;;
53207;SDS011;39093;52.788;6.940;2022-10-16T07:06:20;5.03;;;1.88;;
53207;SDS011;39093;52.788;6.940;2022-10-16T07:08:49;3.10;;;1.85;;
53207;SDS011;39093;52.788;6.940;2022-10-16T07:11:17;4.88;;;1.95;;
53207;SDS011;39093;52.788;6.940;2022-10-16T07:13:47;4.38;;;1.75;;
53207;SDS011;39093;52.788;6.940;2022-10-16T07:16:21;4.25;;;1.88;;
53207;SDS011;39093;52.788;6.940;2022-10-16T07:18:50;2.45;;;1.70;;
53207;SDS011;39093;52.788;6.940;2022-10-16T07:21:21;3.35;;;1.90;;
53207;SDS011;39093;52.788;6.940;2022-10-16T07:23:56;3.97;;;1.63;;
53207;SDS011;39093;52.788;6.940;2022-10-16T07:26:25;5.28;;;1.85;;
53207;SDS011;39093;52.788;6.940;2022-10-16T07:28:53;4.15;;;1.73;;
53207;SDS011;39093;52.788;6.940;2022-10-16T07:31:20;5.18;;;1.67;;
53207;SDS011;39093;52.788;6.940;2022-10-16T07:33:47;6.05;;;2.30;;
53207;SDS011;39093;52.788;6.940;2022-10-16T07:36:16;7.50;;;2.72;;
53207;SDS011;39093;52.788;6.940;2022-10-16T07:38:44;7.13;;;1.90;;
53207;SDS011;39093;52.788;6.940;2022-10-16T07:41:16;4.35;;;1.80;;
53207;SDS011;39093;52.788;6.940;2022-10-16T07:43:48;4.43;;;2.53;;
53207;SDS011;39093;52.788;6.940;2022-10-16T07:46:17;3.50;;;2.42;;
53207;SDS011;39093;52.788;6.940;2022-10-16T07:48:45;5.00;;;1.63;;
53207;SDS011;39093;52.788;6.940;2022-10-16T07:51:15;4.50;;;1.77;;
53207;SDS011;39093;52.788;6.940;2022-10-16T07:53:44;7.22;;;1.60;;
53207;SDS011;39093;52.788;6.940;2022-10-16T07:56:11;4.80;;;1.70;;
53207;SDS011;39093;52.788;6.940;2022-10-16T07:58:40;3.83;;;2.17;;
53207;SDS011;39093;52.788;6.940;2022-10-16T08:01:08;4.28;;;1.70;;
53207;SDS011;39093;52.788;6.940;2022-10-16T08:03:36;6.20;;;1.85;;
53207;SDS011;39093;52.788;6.940;2022-10-16T08:06:03;5.13;;;1.85;;
53207;SDS011;39093;52.788;6.940;2022-10-16T08:08:31;6.03;;;1.73;;
53207;SDS011;39093;52.788;6.940;2022-10-16T08:10:58;7.00;;;1.60;;
53207;SDS011;39093;52.788;6.940;2022-10-16T08:13:25;4.05;;;1.42;;
53207;SDS011;39093;52.788;6.940;2022-10-16T08:15:53;5.13;;;1.50;;
53207;SDS011;39093;52.788;6.940;2022-10-16T08:18:21;4.38;;;1.60;;
53207;SDS011;39093;52.788;6.940;2022-10-16T08:20:54;4.25;;;1.58;;
53207;SDS011;39093;52.788;6.940;2022-10-16T08:23:25;5.47;;;1.83;;
53207;SDS011;39093;52.788;6.940;2022-10-16T08:25:53;6.20;;;1.63;;
53207;SDS011;39093;52.788;6.940;2022-10-16T08:28:21;3.38;;;1.27;;
53207;SDS011;39093;52.788;6.940;2022-10-16T08:30:48;6.45;;;1.67;;
53207;SDS011;39093;52.788;6.940;2022-10-16T08:33:15;6.28;;;1.83;;
53207;SDS011;39093;52.788;6.940;2022-10-16T08:35:42;2.28;;;1.38;;
53207;SDS011;39093;52.788;6.940;2022-10-16T08:38:16;3.47;;;0.98;;
53207;SDS011;39093;52.788;6.940;2022-10-16T08:40:43;5.38;;;1.23;;
53207;SDS011;39093;52.788;6.940;2022-10-16T08:46:06;4.57;;;1.45;;
53207;SDS011;39093;52.788;6.940;2022-10-16T08:49:21;5.30;;;1.50;;
53207;SDS011;39093;52.788;6.940;2022-10-16T08:51:50;4.55;;;1.40;;
53207;SDS011;39093;52.788;6.940;2022-10-16T08:54:31;5.18;;;1.63;;
53207;SDS011;39093;52.788;6.940;2022-10-16T08:57:11;3.85;;;1.40;;
53207;SDS011;39093;52.788;6.940;2022-10-16T08:59:38;3.78;;;1.60;;
53207;SDS011;39093;52.788;6.940;2022-10-16T09:02:23;1.67;;;1.23;;
53207;SDS011;39093;52.788;6.940;2022-10-16T09:18:30;3.95;;;1.23;;
53207;SDS011;39093;52.788;6.940;2022-10-16T09:21:24;7.90;;;1.88;;
53207;SDS011;39093;52.788;6.940;2022-10-16T09:23:57;8.85;;;1.42;;
53207;SDS011;39093;52.788;6.940;2022-10-16T09:26:26;8.85;;;2.03;;
53207;SDS011;39093;52.788;6.940;2022-10-16T09:28:53;6.50;;;1.35;;
53207;SDS011;39093;52.788;6.940;2022-10-16T09:31:21;5.38;;;1.33;;
53207;SDS011;39093;52.788;6.940;2022-10-16T09:33:55;11.15;;;2.70;;
53207;SDS011;39093;52.788;6.940;2022-10-16T09:36:35;5.32;;;1.60;;
53207;SDS011;39093;52.788;6.940;2022-10-16T09:39:08;6.25;;;1.17;;
53207;SDS011;39093;52.788;6.940;2022-10-16T09:41:42;7.80;;;1.88;;
53207;SDS011;39093;52.788;6.940;2022-10-16T09:44:29;7.10;;;1.20;;
53207;SDS011;39093;52.788;6.940;2022-10-16T09:52:25;9.27;;;1.65;;
53207;SDS011;39093;52.788;6.940;2022-10-16T09:54:53;6.70;;;1.17;;
53207;SDS011;39093;52.788;6.940;2022-10-16T09:57:27;7.45;;;1.70;;
53207;SDS011;39093;52.788;6.940;2022-10-16T09:59:56;7.82;;;1.60;;
53207;SDS011;39093;52.788;6.940;2022-10-16T10:02:34;6.90;;;1.30;;
53207;SDS011;39093;52.788;6.940;2022-10-16T10:05:04;9.02;;;1.95;;
53207;SDS011;39093;52.788;6.940;2022-10-16T10:07:33;13.55;;;2.20;;
53207;SDS011;39093;52.788;6.940;2022-10-16T10:10:22;7.13;;;1.42;;
53207;SDS011;39093;52.788;6.940;2022-10-16T10:12:51;13.57;;;1.90;;
53207;SDS011;39093;52.788;6.940;2022-10-16T10:15:18;7.40;;;1.70;;
53207;SDS011;39093;52.788;6.940;2022-10-16T10:17:53;6.90;;;1.60;;
53207;SDS011;39093;52.788;6.940;2022-10-16T10:22:51;6.82;;;1.45;;
53207;SDS011;39093;52.788;6.940;2022-10-16T10:31:34;6.68;;;1.45;;
53207;SDS011;39093;52.788;6.940;2022-10-16T10:34:26;9.45;;;1.55;;
53207;SDS011;39093;52.788;6.940;2022-10-16T10:37:41;9.57;;;1.48;;
53207;SDS011;39093;52.788;6.940;2022-10-16T10:42:51;5.90;;;1.65;;
53207;SDS011;39093;52.788;6.940;2022-10-16T10:45:26;7.22;;;1.30;;
53207;SDS011;39093;52.788;6.940;2022-10-16T10:48:25;6.05;;;1.73;;
53207;SDS011;39093;52.788;6.940;2022-10-16T10:51:03;12.48;;;2.15;;
53207;SDS011;39093;52.788;6.940;2022-10-16T11:02:11;8.32;;;2.85;;
53207;SDS011;39093;52.788;6.940;2022-10-16T11:07:32;9.65;;;1.90;;
53207;SDS011;39093;52.788;6.940;2022-10-16T11:10:15;10.73;;;1.73;;
53207;SDS011;39093;52.788;6.940;2022-10-16T11:12:49;11.80;;;2.03;;
53207;SDS011;39093;52.788;6.940;2022-10-16T11:15:23;9.25;;;1.75;;
53207;SDS011;39093;52.788;6.940;2022-10-16T11:17:52;15.73;;;2.70;;
53207;SDS011;39093;52.788;6.940;2022-10-16T11:20:45;7.45;;;1.60;;
53207;SDS011;39093;52.788;6.940;2022-10-16T11:26:27;9.10;;;2.17;;
53207;SDS011;39093;52.788;6.940;2022-10-16T11:31:29;14.73;;;2.00;;
53207;SDS011;39093;52.788;6.940;2022-10-16T11:36:43;9.30;;;1.55;;
53207;SDS011;39093;52.788;6.940;2022-10-16T11:39:28;7.53;;;1.95;;
53207;SDS011;39093;52.788;6.940;2022-10-16T11:42:13;10.48;;;1.95;;
53207;SDS011;39093;52.788;6.940;2022-10-16T11:44:57;7.88;;;1.52;;
53207;SDS011;39093;52.788;6.940;2022-10-16T11:47:41;9.50;;;1.88;;
53207;SDS011;39093;52.788;6.940;2022-10-16T11:55:42;10.57;;;2.08;;
53207;SDS011;39093;52.788;6.940;2022-10-16T12:07:07;14.02;;;2.20;;
53207;SDS011;39093;52.788;6.940;2022-10-16T12:09:53;8.88;;;2.20;;
53207;SDS011;39093;52.788;6.940;2022-10-16T12:12:23;10.40;;;1.80;;
53207;SDS011;39093;52.788;6.940;2022-10-16T12:17:55;6.22;;;1.45;;
53207;SDS011;39093;52.788;6.940;2022-10-16T12:23:47;6.70;;;1.27;;
53207;SDS011;39093;52.788;6.940;2022-10-16T12:25:53;5.40;;;1.30;;
53207;SDS011;39093;52.788;6.940;2022-10-16T12:28:22;8.77;;;1.77;;
53207;SDS011;39093;52.788;6.940;2022-10-16T12:30:54;6.93;;;1.93;;
53207;SDS011;39093;52.788;6.940;2022-10-16T12:33:33;9.82;;;2.00;;
53207;SDS011;39093;52.788;6.940;2022-10-16T12:36:12;10.73;;;1.90;;
53207;SDS011;39093;52.788;6.940;2022-10-16T12:41:23;6.68;;;1.60;;
53207;SDS011;39093;52.788;6.940;2022-10-16T12:43:55;10.43;;;1.70;;
53207;SDS011;39093;52.788;6.940;2022-10-16T12:51:42;9.32;;;1.95;;
53207;SDS011;39093;52.788;6.940;2022-10-16T12:54:13;11.55;;;2.17;;
53207;SDS011;39093;52.788;6.940;2022-10-16T12:56:57;10.02;;;1.73;;
53207;SDS011;39093;52.788;6.940;2022-10-16T13:05:46;8.48;;;1.48;;
53207;SDS011;39093;52.788;6.940;2022-10-16T13:16:48;8.48;;;1.95;;
53207;SDS011;39093;52.788;6.940;2022-10-16T13:25:15;6.65;;;1.50;;
53207;SDS011;39093;52.788;6.940;2022-10-16T13:28:08;9.55;;;1.80;;
53207;SDS011;39093;52.788;6.940;2022-10-16T13:30:44;7.10;;;1.45;;
53207;SDS011;39093;52.788;6.940;2022-10-16T13:33:40;6.43;;;1.23;;
53207;SDS011;39093;52.788;6.940;2022-10-16T13:36:18;6.80;;;1.42;;
53207;SDS011;39093;52.788;6.940;2022-10-16T13:39:00;6.30;;;1.65;;
53207;SDS011;39093;52.788;6.940;2022-10-16T13:41:36;7.13;;;1.88;;
53207;SDS011;39093;52.788;6.940;2022-10-16T13:44:03;6.60;;;1.77;;
53207;SDS011;39093;52.788;6.940;2022-10-16T13:46:31;7.30;;;2.67;;
53207;SDS011;39093;52.788;6.940;2022-10-16T13:49:18;6.38;;;1.70;;
53207;SDS011;39093;52.788;6.940;2022-10-16T13:51:56;7.93;;;1.92;;
53207;SDS011;39093;52.788;6.940;2022-10-16T13:54:25;8.68;;;1.80;;
53207;SDS011;39093;52.788;6.940;2022-10-16T13:56:53;9.77;;;1.20;;
53207;SDS011;39093;52.788;6.940;2022-10-16T13:59:35;10.68;;;2.28;;
53207;SDS011;39093;52.788;6.940;2022-10-16T14:02:14;9.38;;;1.67;;
53207;SDS011;39093;52.788;6.940;2022-10-16T14:04:48;8.20;;;1.73;;
53207;SDS011;39093;52.788;6.940;2022-10-16T14:07:23;13.10;;;1.85;;
53207;SDS011;39093;52.788;6.940;2022-10-16T14:09:53;6.75;;;1.33;;
53207;SDS011;39093;52.788;6.940;2022-10-16T14:12:20;9.55;;;1.83;;
53207;SDS011;39093;52.788;6.940;2022-10-16T14:14:53;3.80;;;1.00;;
53207;SDS011;39093;52.788;6.940;2022-10-16T14:17:22;7.28;;;1.63;;
53207;SDS011;39093;52.788;6.940;2022-10-16T14:19:53;12.73;;;1.50;;
53207;SDS011;39093;52.788;6.940;2022-10-16T14:22:30;7.35;;;1.80;;
53207;SDS011;39093;52.788;6.940;2022-10-16T14:27:45;10.15;;;2.05;;
53207;SDS011;39093;52.788;6.940;2022-10-16T14:33:52;8.80;;;1.92;;
53207;SDS011;39093;52.788;6.940;2022-10-16T14:36:19;9.70;;;2.08;;
53207;SDS011;39093;52.788;6.940;2022-10-16T14:39:13;8.10;;;2.50;;
53207;SDS011;39093;52.788;6.940;2022-10-16T14:41:46;9.63;;;2.03;;
53207;SDS011;39093;52.788;6.940;2022-10-16T14:44:14;11.65;;;2.20;;
53207;SDS011;39093;52.788;6.940;2022-10-16T14:46:44;6.70;;;2.17;;
53207;SDS011;39093;52.788;6.940;2022-10-16T14:51:39;11.40;;;2.80;;
53207;SDS011;39093;52.788;6.940;2022-10-16T14:54:08;10.30;;;1.92;;
53207;SDS011;39093;52.788;6.940;2022-10-16T14:56:49;8.38;;;1.92;;
53207;SDS011;39093;52.788;6.940;2022-10-16T15:02:08;8.25;;;1.67;;
53207;SDS011;39093;52.788;6.940;2022-10-16T15:04:46;8.55;;;1.70;;
53207;SDS011;39093;52.788;6.940;2022-10-16T15:07:14;9.52;;;2.75;;
53207;SDS011;39093;52.788;6.940;2022-10-16T15:09:41;7.55;;;1.33;;
53207;SDS011;39093;52.788;6.940;2022-10-16T15:12:14;8.85;;;2.13;;
53207;SDS011;39093;52.788;6.940;2022-10-16T15:14:42;7.53;;;1.60;;
53207;SDS011;39093;52.788;6.940;2022-10-16T15:17:10;8.25;;;2.40;;
53207;SDS011;39093;52.788;6.940;2022-10-16T15:19:37;7.93;;;1.80;;
53207;SDS011;39093;52.788;6.940;2022-10-16T15:22:04;12.65;;;2.00;;
53207;SDS011;39093;52.788;6.940;2022-10-16T15:24:31;6.25;;;2.00;;
53207;SDS011;39093;52.788;6.940;2022-10-16T15:26:58;9.38;;;2.70;;
53207;SDS011;39093;52.788;6.940;2022-10-16T15:29:25;8.95;;;2.58;;
53207;SDS011;39093;52.788;6.940;2022-10-16T15:31:52;9.60;;;1.85;;
53207;SDS011;39093;52.788;6.940;2022-10-16T15:34:19;7.28;;;2.00;;
53207;SDS011;39093;52.788;6.940;2022-10-16T15:36:46;6.65;;;1.98;;
53207;SDS011;39093;52.788;6.940;2022-10-16T15:41:41;11.13;;;2.53;;
53207;SDS011;39093;52.788;6.940;2022-10-16T15:44:09;7.50;;;2.30;;
53207;SDS011;39093;52.788;6.940;2022-10-16T15:46:36;9.18;;;2.05;;
53207;SDS011;39093;52.788;6.940;2022-10-16T15:49:03;10.63;;;2.33;;
53207;SDS011;39093;52.788;6.940;2022-10-16T15:51:30;8.20;;;2.13;;
53207;SDS011;39093;52.788;6.940;2022-10-16T15:53:59;4.28;;;1.50;;
53207;SDS011;39093;52.788;6.940;2022-10-16T15:56:28;11.85;;;2.60;;
53207;SDS011;39093;52.788;6.940;2022-10-16T15:58:56;9.95;;;2.83;;
53207;SDS011;39093;52.788;6.940;2022-10-16T16:01:24;13.10;;;2.95;;
53207;SDS011;39093;52.788;6.940;2022-10-16T16:03:52;7.47;;;3.17;;
53207;SDS011;39093;52.788;6.940;2022-10-16T16:06:20;7.93;;;2.03;;
53207;SDS011;39093;52.788;6.940;2022-10-16T16:08:49;7.63;;;2.15;;
53207;SDS011;39093;52.788;6.940;2022-10-16T16:11:17;8.88;;;2.25;;
53207;SDS011;39093;52.788;6.940;2022-10-16T16:13:45;11.90;;;2.38;;
53207;SDS011;39093;52.788;6.940;2022-10-16T16:16:13;10.35;;;2.63;;
53207;SDS011;39093;52.788;6.940;2022-10-16T16:18:41;8.77;;;1.92;;
53207;SDS011;39093;52.788;6.940;2022-10-16T16:21:12;13.32;;;2.92;;
53207;SDS011;39093;52.788;6.940;2022-10-16T16:23:39;6.70;;;2.70;;
53207;SDS011;39093;52.788;6.940;2022-10-16T16:26:11;8.32;;;2.53;;
53207;SDS011;39093;52.788;6.940;2022-10-16T16:28:47;11.77;;;2.78;;
53207;SDS011;39093;52.788;6.940;2022-10-16T16:31:15;16.52;;;2.85;;
53207;SDS011;39093;52.788;6.940;2022-10-16T16:33:41;7.60;;;2.25;;
53207;SDS011;39093;52.788;6.940;2022-10-16T16:36:08;7.57;;;2.22;;
53207;SDS011;39093;52.788;6.940;2022-10-16T16:38:41;11.40;;;2.63;;
53207;SDS011;39093;52.788;6.940;2022-10-16T16:41:23;9.38;;;2.63;;
53207;SDS011;39093;52.788;6.940;2022-10-16T16:43:52;12.77;;;5.05;;
53207;SDS011;39093;52.788;6.940;2022-10-16T16:46:19;12.65;;;4.60;;
53207;SDS011;39093;52.788;6.940;2022-10-16T16:48:48;10.77;;;3.25;;
53207;SDS011;39093;52.788;6.940;2022-10-16T16:51:17;14.77;;;3.95;;
53207;SDS011;39093;52.788;6.940;2022-10-16T16:53:46;10.70;;;3.60;;
53207;SDS011;39093;52.788;6.940;2022-10-16T16:56:15;10.32;;;3.47;;
53207;SDS011;39093;52.788;6.940;2022-10-16T16:58:47;17.85;;;4.57;;
53207;SDS011;39093;52.788;6.940;2022-10-16T17:01:15;15.13;;;4.68;;
53207;SDS011;39093;52.788;6.940;2022-10-16T17:03:46;16.60;;;4.88;;
53207;SDS011;39093;52.788;6.940;2022-10-16T17:06:16;12.82;;;4.95;;
53207;SDS011;39093;52.788;6.940;2022-10-16T17:08:46;16.98;;;6.80;;
53207;SDS011;39093;52.788;6.940;2022-10-16T17:11:16;14.35;;;6.10;;
53207;SDS011;39093;52.788;6.940;2022-10-16T17:13:47;17.93;;;6.43;;